createdAt,value
2023-05-21T00:02:56.998Z,13.62
2023-05-21T00:06:02.097Z,13.72
2023-05-21T00:09:07.200Z,13.73
2023-05-21T00:12:10.742Z,13.77
2023-05-21T00:15:14.370Z,13.73
2023-05-21T00:18:17.738Z,13.90
2023-05-21T00:21:23.612Z,14.14
2023-05-21T00:24:26.961Z,14.17
2023-05-21T00:27:29.971Z,14.17
2023-05-21T00:30:32.912Z,14.47
2023-05-21T00:33:35.898Z,14.55
2023-05-21T00:36:41.583Z,14.65
2023-05-21T00:39:44.521Z,14.87
2023-05-21T00:42:48.624Z,15.05
2023-05-21T00:45:54.292Z,15.05
2023-05-21T00:48:58.570Z,15.24
2023-05-21T00:52:02.142Z,15.41
2023-05-21T00:55:10.160Z,15.71
2023-05-21T00:58:13.320Z,15.67
2023-05-21T01:01:18.859Z,15.73
2023-05-21T01:04:26.774Z,15.76
2023-05-21T01:07:30.358Z,16.04
2023-05-21T01:10:34.211Z,16.15
2023-05-21T01:13:41.862Z,16.32
2023-05-21T01:16:47.328Z,16.36
2023-05-21T01:19:51.028Z,16.60
2023-05-21T01:22:57.802Z,16.75
2023-05-21T01:26:01.654Z,17.08
2023-05-21T01:29:05.996Z,17.31
2023-05-21T01:32:17.850Z,17.63
2023-05-21T01:35:26.927Z,17.67
2023-05-21T01:38:57.148Z,17.73
2023-05-21T01:42:04.108Z,17.58
2023-05-21T01:45:08.661Z,17.55
2023-05-21T01:48:13.610Z,18.05
2023-05-21T01:51:17.746Z,18.57
2023-05-21T01:54:22.538Z,18.89
2023-05-21T01:57:27.298Z,18.48
2023-05-21T02:00:33.079Z,19.70
2023-05-21T02:03:36.699Z,20.53
2023-05-21T02:06:42.306Z,20.75
2023-05-21T02:09:45.897Z,21.16
2023-05-21T02:12:48.960Z,22.04
2023-05-21T02:15:56.098Z,21.93
2023-05-21T02:19:01.099Z,22.39
2023-05-21T02:22:05.407Z,23.03
2023-05-21T02:25:10.739Z,23.17
2023-05-21T02:28:14.068Z,23.19
2023-05-21T02:31:17.875Z,23.79
2023-05-21T02:34:22.143Z,23.27
2023-05-21T02:37:30.054Z,23.32
2023-05-21T02:40:34.326Z,23.95
2023-05-21T02:43:37.739Z,23.91
2023-05-21T02:46:42.076Z,23.44
2023-05-21T02:49:46.174Z,24.25
2023-05-21T02:52:50.759Z,25.62
2023-05-21T02:55:54.554Z,25.88
2023-05-21T02:58:58.767Z,26.00
2023-05-21T03:02:02.825Z,26.36
2023-05-21T03:05:07.661Z,26.81
2023-05-21T03:08:11.344Z,26.94
2023-05-21T03:11:16.636Z,27.14
2023-05-21T03:14:20.605Z,27.14
2023-05-21T03:17:24.566Z,27.94
2023-05-21T03:20:28.771Z,27.85
2023-05-21T03:23:33.099Z,27.63
2023-05-21T03:26:37.350Z,27.74
2023-05-21T03:29:41.709Z,29.03
2023-05-21T03:32:45.639Z,30.12
2023-05-21T03:35:49.297Z,29.97
2023-05-21T03:38:52.431Z,30.16
2023-05-21T03:41:56.992Z,30.93
2023-05-21T03:45:19.482Z,31.00
2023-05-21T03:48:41.795Z,28.99
2023-05-21T03:51:48.872Z,27.83
2023-05-21T03:54:54.624Z,28.23
2023-05-21T03:57:59.432Z,30.31
2023-05-21T04:01:05.233Z,31.31
2023-05-21T04:04:09.773Z,31.57
2023-05-21T04:07:15.917Z,31.97
2023-05-21T04:10:19.622Z,31.96
2023-05-21T04:13:25.006Z,31.94
2023-05-21T04:16:28.428Z,32.35
2023-05-21T04:19:34.063Z,31.85
2023-05-21T04:22:39.619Z,32.38
2023-05-21T04:25:45.315Z,33.00
2023-05-21T04:28:48.407Z,33.50
2023-05-21T04:31:52.020Z,34.93
2023-05-21T04:34:56.240Z,35.36
2023-05-21T04:38:02.330Z,34.64
2023-05-21T04:41:07.996Z,34.87
2023-05-21T04:44:11.560Z,35.23
2023-05-21T04:47:15.852Z,36.43
2023-05-21T04:50:19.341Z,37.87
2023-05-21T04:53:24.332Z,38.38
2023-05-21T04:56:28.319Z,37.85
2023-05-21T04:59:33.085Z,37.47
2023-05-21T05:02:36.834Z,36.99
2023-05-21T05:05:41.942Z,36.53
2023-05-21T05:08:47.321Z,36.98
2023-05-21T05:11:52.315Z,37.22
2023-05-21T05:14:55.400Z,36.27
2023-05-21T05:18:00.010Z,35.61
2023-05-21T05:21:05.013Z,37.78
2023-05-21T05:24:08.545Z,38.99
2023-05-21T05:27:11.681Z,39.88
2023-05-21T05:30:14.829Z,40.52
2023-05-21T05:33:18.723Z,41.10
2023-05-21T05:36:23.353Z,41.84
2023-05-21T05:39:28.108Z,42.12
2023-05-21T05:42:32.495Z,42.82
2023-05-21T05:45:46.722Z,42.68
2023-05-21T05:48:51.623Z,42.28
2023-05-21T05:51:55.611Z,42.05
2023-05-21T05:55:03.079Z,41.80
2023-05-21T05:58:07.209Z,41.25
2023-05-21T06:01:25.202Z,41.00
2023-05-21T06:04:30.795Z,41.42
2023-05-21T06:07:34.206Z,42.24
2023-05-21T06:10:37.999Z,43.06
2023-05-21T06:13:41.011Z,42.60
2023-05-21T06:16:45.865Z,43.55
2023-05-21T06:19:48.963Z,42.13
2023-05-21T06:22:53.037Z,42.23
2023-05-21T06:25:56.458Z,42.14
2023-05-21T06:29:01.934Z,41.96
2023-05-21T06:32:08.989Z,39.52
2023-05-21T06:35:12.877Z,41.50
2023-05-21T06:38:15.888Z,42.64
2023-05-21T06:41:19.345Z,44.42
2023-05-21T06:44:26.780Z,44.58
2023-05-21T06:47:42.026Z,44.38
2023-05-21T06:50:45.186Z,43.72
2023-05-21T06:53:49.195Z,42.67
2023-05-21T06:56:53.719Z,43.16
2023-05-21T06:59:58.595Z,44.25
2023-05-21T07:03:06.806Z,44.69
2023-05-21T07:06:10.350Z,45.45
2023-05-21T07:09:20.322Z,45.64
2023-05-21T07:12:24.683Z,45.47
2023-05-21T07:15:28.606Z,45.70
2023-05-21T07:18:32.771Z,44.30
2023-05-21T07:21:37.249Z,45.27
2023-05-21T07:24:43.505Z,45.34
2023-05-21T07:27:46.663Z,45.06
2023-05-21T07:30:50.105Z,43.71
2023-05-21T07:33:58.230Z,42.51
2023-05-21T07:37:05.396Z,42.74
2023-05-21T07:40:09.042Z,43.41
2023-05-21T07:43:14.695Z,44.39
2023-05-21T07:46:18.287Z,42.89
2023-05-21T07:49:23.760Z,42.98
2023-05-21T07:52:28.834Z,44.64
2023-05-21T07:55:32.201Z,44.28
2023-05-21T07:58:35.734Z,44.67
2023-05-21T08:01:39.390Z,45.21
2023-05-21T08:04:43.779Z,42.47
2023-05-21T08:07:47.748Z,43.71
2023-05-21T08:10:50.894Z,44.75
2023-05-21T08:13:56.407Z,43.60
2023-05-21T08:17:00.268Z,44.43
2023-05-21T08:20:04.247Z,43.44
2023-05-21T08:23:12.975Z,44.14
2023-05-21T08:26:23.420Z,43.98
2023-05-21T08:29:27.361Z,44.01
2023-05-21T08:32:33.078Z,43.63
2023-05-21T08:35:37.436Z,44.53
2023-05-21T08:39:06.940Z,44.26
2023-05-21T08:42:36.385Z,44.01
2023-05-21T08:45:43.919Z,43.80
2023-05-21T08:48:48.517Z,44.09
2023-05-21T08:51:54.302Z,43.52
2023-05-21T08:54:58.739Z,44.19
2023-05-21T08:58:05.998Z,44.85
2023-05-21T09:01:11.230Z,44.50
2023-05-21T09:04:20.915Z,41.16
2023-05-21T09:07:29.798Z,41.81
2023-05-21T09:10:51.875Z,42.76
2023-05-21T09:14:00.990Z,42.51
2023-05-21T09:17:20.745Z,40.69
2023-05-21T09:20:34.114Z,40.58
2023-05-21T09:23:39.449Z,39.54
2023-05-21T09:26:45.724Z,40.21
2023-05-21T09:29:49.580Z,40.37
2023-05-21T09:32:59.638Z,40.23
2023-05-21T09:36:03.366Z,39.56
2023-05-21T09:39:06.550Z,39.56
2023-05-21T09:42:11.952Z,39.30
2023-05-21T09:45:26.790Z,39.33
2023-05-21T09:48:43.364Z,39.38
2023-05-21T09:51:50.972Z,37.42
2023-05-21T09:54:55.249Z,37.36
2023-05-21T09:57:59.633Z,37.53
2023-05-21T10:01:02.808Z,35.95
2023-05-21T10:04:10.075Z,35.42
2023-05-21T10:07:14.336Z,34.02
2023-05-21T10:10:19.918Z,32.50
2023-05-21T10:13:24.628Z,30.30
2023-05-21T10:16:29.576Z,29.33
2023-05-21T10:19:37.279Z,28.85
2023-05-21T10:22:41.535Z,29.02
2023-05-21T10:25:46.591Z,28.84
2023-05-21T10:28:52.157Z,28.14
2023-05-21T10:31:55.682Z,27.63
2023-05-21T10:35:01.353Z,27.74
2023-05-21T10:38:06.218Z,27.46
2023-05-21T10:41:12.197Z,27.14
2023-05-21T10:44:41.404Z,27.63
2023-05-21T10:48:06.890Z,27.97
2023-05-21T10:51:49.035Z,27.76
2023-05-21T10:55:16.910Z,27.48
2023-05-21T10:59:01.904Z,26.79
2023-05-21T11:02:06.947Z,26.32
2023-05-21T11:14:59.012Z,25.43
2023-05-21T18:43:14.753Z,14.05
2023-05-21T18:46:18.288Z,13.95
2023-05-21T18:49:22.592Z,13.90
2023-05-21T18:52:26.637Z,13.81
2023-05-21T18:55:30.386Z,13.77
2023-05-21T18:58:34.791Z,13.73
2023-05-21T19:01:40.809Z,13.69
2023-05-21T19:04:45.065Z,13.68
2023-05-21T19:07:48.925Z,13.59
2023-05-21T19:10:53.586Z,13.50
2023-05-21T19:13:57.767Z,13.43
2023-05-21T19:17:01.406Z,13.43
2023-05-21T19:20:06.371Z,13.39
2023-05-21T19:23:10.418Z,13.35
2023-05-21T19:26:14.950Z,13.28
2023-05-21T19:29:18.178Z,13.22
2023-05-21T19:32:24.520Z,13.21
2023-05-21T19:35:28.208Z,13.10
2023-05-21T19:38:32.571Z,12.93
2023-05-21T19:41:36.327Z,12.88
2023-05-21T19:44:43.914Z,12.82
2023-05-21T19:47:47.591Z,12.76
2023-05-21T19:50:51.752Z,12.63
2023-05-21T19:53:55.618Z,12.62
2023-05-21T19:56:59.930Z,12.57
2023-05-21T20:00:04.994Z,12.50
2023-05-21T20:03:18.102Z,12.45
2023-05-21T20:06:21.994Z,12.46
2023-05-21T20:09:26.032Z,12.40
2023-05-21T20:12:30.241Z,12.31
2023-05-21T20:15:35.153Z,12.26
2023-05-21T20:18:38.895Z,12.22
2023-05-21T20:21:43.223Z,12.20
2023-05-21T20:24:46.930Z,12.32
2023-05-21T20:27:51.018Z,12.24
2023-05-21T20:30:59.794Z,12.15
2023-05-21T20:34:08.268Z,12.07
2023-05-21T20:37:13.030Z,12.01
2023-05-21T20:40:16.870Z,12.00
2023-05-21T20:43:20.619Z,11.94
2023-05-21T20:46:24.790Z,11.90
2023-05-21T20:49:28.878Z,11.86
2023-05-21T20:52:32.794Z,11.79
2023-05-21T20:55:36.497Z,11.77
2023-05-21T20:58:40.907Z,11.77
2023-05-21T21:01:44.755Z,11.78
2023-05-21T21:04:50.065Z,11.84
2023-05-21T21:07:55.902Z,11.83
2023-05-21T21:11:00.507Z,11.85
2023-05-21T21:14:04.345Z,11.88
2023-05-21T21:17:08.784Z,11.89
2023-05-21T21:20:13.415Z,11.97
2023-05-21T21:23:17.659Z,12.03
2023-05-21T21:26:22.724Z,12.09
2023-05-21T21:29:26.482Z,12.14
2023-05-21T21:32:30.413Z,12.23
2023-05-21T21:35:34.322Z,12.33
2023-05-21T21:38:38.181Z,12.41
2023-05-21T21:41:43.128Z,12.52
2023-05-21T21:44:47.146Z,12.67
2023-05-21T21:47:50.541Z,12.79
2023-05-21T21:50:54.538Z,12.79
2023-05-21T21:53:58.704Z,12.83
2023-05-21T21:57:02.747Z,12.94
2023-05-21T22:00:12.091Z,13.11
2023-05-21T22:03:17.085Z,13.71
2023-05-21T22:06:20.929Z,13.78
2023-05-21T22:09:25.146Z,13.58
2023-05-21T22:12:29.951Z,13.41
2023-05-21T22:15:33.549Z,13.48
2023-05-21T22:18:42.712Z,13.42
2023-05-21T22:21:46.970Z,13.51
2023-05-21T22:24:51.229Z,13.54
2023-05-21T22:27:55.306Z,13.53
2023-05-21T22:31:00.051Z,13.59
2023-05-21T22:34:03.962Z,13.87
2023-05-21T22:37:08.068Z,14.20
2023-05-21T22:40:12.233Z,13.96
2023-05-21T22:43:15.984Z,13.87
2023-05-21T22:46:19.847Z,14.41
2023-05-21T22:49:23.927Z,14.25
2023-05-21T22:52:29.363Z,14.09
2023-05-21T22:55:33.477Z,14.13
2023-05-21T22:58:37.315Z,14.21
2023-05-21T23:01:42.040Z,14.18
2023-05-21T23:04:46.029Z,14.32
2023-05-21T23:07:50.545Z,14.44
2023-05-21T23:10:54.586Z,14.59
2023-05-21T23:13:59.289Z,14.63
2023-05-21T23:17:03.069Z,14.69
2023-05-21T23:20:09.706Z,14.66
2023-05-21T23:23:13.901Z,14.66
2023-05-21T23:26:18.266Z,14.43
2023-05-21T23:29:22.420Z,14.57
2023-05-21T23:32:26.338Z,14.58
2023-05-21T23:35:30.184Z,14.75
2023-05-21T23:38:33.987Z,14.75
2023-05-21T23:41:38.183Z,14.83
2023-05-21T23:44:42.437Z,15.04
2023-05-21T23:47:46.662Z,15.19
2023-05-21T23:50:50.744Z,15.27
2023-05-21T23:53:54.616Z,15.39
2023-05-21T23:56:58.391Z,15.42
